createdAt,value
2022-08-29T00:01:09.727Z,8.10
2022-08-29T00:03:36.707Z,5.78
2022-08-29T00:06:03.623Z,7.68
2022-08-29T00:08:30.091Z,8.02
2022-08-29T00:10:56.641Z,7.03
2022-08-29T00:13:23.328Z,5.97
2022-08-29T00:15:50.087Z,8.82
2022-08-29T00:18:19.293Z,9.00
2022-08-29T00:20:46.601Z,8.75
2022-08-29T00:23:13.581Z,7.55
2022-08-29T00:25:40.242Z,6.85
2022-08-29T00:28:06.827Z,9.13
2022-08-29T00:30:35.097Z,8.13
2022-08-29T00:33:02.137Z,8.80
2022-08-29T00:35:33.465Z,5.70
2022-08-29T00:38:01.047Z,9.13
2022-08-29T00:40:51.728Z,5.75
2022-08-29T00:43:31.627Z,5.45
2022-08-29T00:46:38.819Z,10.60
2022-08-29T00:49:11.746Z,8.80
2022-08-29T00:51:41.213Z,5.13
2022-08-29T00:54:10.295Z,8.00
2022-08-29T00:56:39.185Z,6.88
2022-08-29T00:59:13.503Z,9.15
2022-08-29T01:01:40.438Z,7.95
2022-08-29T01:04:09.851Z,11.88
2022-08-29T01:06:43.601Z,8.10
2022-08-29T01:09:11.033Z,7.55
2022-08-29T01:11:56.588Z,10.82
2022-08-29T01:14:25.560Z,11.35
2022-08-29T01:16:55.373Z,10.00
2022-08-29T01:19:24.505Z,6.10
2022-08-29T01:22:02.143Z,9.63
2022-08-29T01:24:40.035Z,9.05
2022-08-29T01:27:07.734Z,8.38
2022-08-29T01:29:34.840Z,13.20
2022-08-29T01:32:02.149Z,11.63
2022-08-29T01:34:29.709Z,10.13
2022-08-29T01:36:59.511Z,8.13
2022-08-29T01:39:30.542Z,10.50
2022-08-29T01:42:01.927Z,6.65
2022-08-29T01:44:28.451Z,8.88
2022-08-29T01:47:02.692Z,8.25
2022-08-29T01:49:32.165Z,8.70
2022-08-29T01:51:58.645Z,8.27
2022-08-29T01:54:25.282Z,9.05
2022-08-29T01:56:53.348Z,6.80
2022-08-29T01:59:27.079Z,6.38
2022-08-29T02:01:58.522Z,7.18
2022-08-29T02:04:25.579Z,7.70
2022-08-29T02:06:52.595Z,5.60
2022-08-29T02:09:19.479Z,7.97
2022-08-29T02:11:48.225Z,10.25
2022-08-29T02:14:19.231Z,8.52
2022-08-29T02:16:47.468Z,7.43
2022-08-29T02:19:14.624Z,6.00
2022-08-29T02:21:41.745Z,7.68
2022-08-29T02:24:24.541Z,10.80
2022-08-29T02:26:52.545Z,10.00
2022-08-29T02:29:19.168Z,14.88
2022-08-29T02:31:45.767Z,6.15
2022-08-29T02:34:12.992Z,5.38
2022-08-29T02:36:41.356Z,9.95
2022-08-29T02:39:08.183Z,9.02
2022-08-29T02:41:35.864Z,9.75
2022-08-29T02:44:02.706Z,7.40
2022-08-29T02:46:29.275Z,8.52
2022-08-29T02:49:00.970Z,8.23
2022-08-29T02:51:30.713Z,9.90
2022-08-29T02:53:58.095Z,8.65
2022-08-29T02:56:24.630Z,13.80
2022-08-29T02:58:51.193Z,7.63
2022-08-29T03:01:22.539Z,9.20
2022-08-29T03:03:52.888Z,9.40
2022-08-29T03:06:20.874Z,8.73
2022-08-29T03:08:47.403Z,6.82
2022-08-29T03:11:14.077Z,10.18
2022-08-29T03:13:43.411Z,8.18
2022-08-29T03:16:11.094Z,8.68
2022-08-29T03:18:37.964Z,9.63
2022-08-29T03:21:04.597Z,12.13
2022-08-29T03:23:31.146Z,10.73
2022-08-29T03:25:57.772Z,5.90
2022-08-29T03:28:24.294Z,9.43
2022-08-29T03:30:50.872Z,7.38
2022-08-29T03:33:18.138Z,6.55
2022-08-29T03:35:44.627Z,6.80
2022-08-29T03:38:11.215Z,8.82
2022-08-29T03:40:41.376Z,10.90
2022-08-29T03:43:09.430Z,6.72
2022-08-29T03:45:36.006Z,7.35
2022-08-29T03:48:02.796Z,6.85
2022-08-29T03:50:29.520Z,6.57
2022-08-29T03:52:56.022Z,6.90
2022-08-29T03:55:22.508Z,8.48
2022-08-29T03:57:49.210Z,7.53
2022-08-29T04:00:18.365Z,8.90
2022-08-29T04:02:46.794Z,8.48
2022-08-29T04:05:14.988Z,9.57
2022-08-29T04:08:00.200Z,8.30
2022-08-29T04:10:31.164Z,5.63
2022-08-29T04:12:58.547Z,11.70
2022-08-29T04:15:27.294Z,6.93
2022-08-29T04:17:59.898Z,7.70
2022-08-29T04:20:29.199Z,7.78
2022-08-29T04:22:57.447Z,7.15
2022-08-29T04:25:25.674Z,8.48
2022-08-29T04:27:53.885Z,9.20
2022-08-29T04:30:23.006Z,6.10
2022-08-29T04:32:49.989Z,6.22
2022-08-29T04:35:16.664Z,7.18
2022-08-29T04:37:43.992Z,8.45
2022-08-29T04:40:13.710Z,7.35
2022-08-29T04:42:40.571Z,8.57
2022-08-29T04:45:12.098Z,12.90
2022-08-29T04:47:39.593Z,7.43
2022-08-29T04:50:08.031Z,7.07
2022-08-29T04:52:34.584Z,9.07
2022-08-29T04:55:01.250Z,15.05
2022-08-29T04:57:27.839Z,10.07
2022-08-29T05:00:01.380Z,15.88
2022-08-29T05:02:28.595Z,20.25
2022-08-29T05:04:56.706Z,20.38
2022-08-29T05:07:25.751Z,27.15
2022-08-29T05:10:00.955Z,20.40
2022-08-29T05:12:31.339Z,26.13
2022-08-29T05:14:58.009Z,21.08
2022-08-29T05:17:25.812Z,15.98
2022-08-29T05:19:53.227Z,20.88
2022-08-29T05:22:20.827Z,34.90
2022-08-29T05:24:48.824Z,34.60
2022-08-29T05:27:18.798Z,44.95
2022-08-29T05:29:47.996Z,45.78
2022-08-29T05:32:15.542Z,43.58
2022-08-29T05:34:43.561Z,34.15
2022-08-29T05:37:14.662Z,29.73
2022-08-29T05:39:42.382Z,18.67
2022-08-29T05:42:10.798Z,18.80
2022-08-29T05:44:38.803Z,17.10
2022-08-29T05:47:10.153Z,17.42
2022-08-29T05:49:38.822Z,15.90
2022-08-29T05:52:06.074Z,26.00
2022-08-29T05:54:38.692Z,16.13
2022-08-29T05:57:06.841Z,17.27
2022-08-29T05:59:33.393Z,18.27
2022-08-29T06:01:59.886Z,15.93
2022-08-29T06:04:26.502Z,18.67
2022-08-29T06:06:53.141Z,13.00
2022-08-29T06:09:19.720Z,14.38
2022-08-29T06:11:48.854Z,13.43
2022-08-29T06:14:16.196Z,14.25
2022-08-29T06:16:43.264Z,13.25
2022-08-29T06:19:09.912Z,15.52
2022-08-29T06:21:36.430Z,17.88
2022-08-29T06:24:03.462Z,14.80
2022-08-29T06:26:31.461Z,14.20
2022-08-29T06:28:58.075Z,15.77
2022-08-29T06:31:29.575Z,17.10
2022-08-29T06:34:01.524Z,17.08
2022-08-29T06:36:29.560Z,12.80
2022-08-29T06:38:57.785Z,12.10
2022-08-29T06:41:25.447Z,19.55
2022-08-29T06:43:52.486Z,19.13
2022-08-29T06:46:25.826Z,13.48
2022-08-29T06:48:53.796Z,15.18
2022-08-29T06:51:20.969Z,12.70
2022-08-29T06:53:47.610Z,10.50
2022-08-29T06:56:14.480Z,14.93
2022-08-29T06:58:41.281Z,10.07
2022-08-29T07:01:10.089Z,10.80
2022-08-29T07:03:36.959Z,14.65
2022-08-29T07:06:03.784Z,16.85
2022-08-29T07:08:30.671Z,17.38
2022-08-29T07:10:57.407Z,14.93
2022-08-29T07:13:23.929Z,14.35
2022-08-29T07:15:50.496Z,12.38
2022-08-29T07:18:17.158Z,15.05
2022-08-29T07:20:44.094Z,15.27
2022-08-29T07:23:11.028Z,13.90
2022-08-29T07:25:38.646Z,16.95
2022-08-29T07:28:05.672Z,14.57
2022-08-29T07:30:32.666Z,14.40
2022-08-29T07:33:00.019Z,14.32
2022-08-29T07:35:30.377Z,20.45
2022-08-29T07:37:59.416Z,10.30
2022-08-29T07:40:25.986Z,22.15
2022-08-29T07:42:52.925Z,13.05
2022-08-29T07:45:19.851Z,16.45
2022-08-29T07:47:46.360Z,10.45
2022-08-29T07:50:14.346Z,12.88
2022-08-29T07:52:41.125Z,10.10
2022-08-29T07:55:08.080Z,12.63
2022-08-29T07:57:39.583Z,15.52
2022-08-29T08:00:10.705Z,13.02
2022-08-29T08:02:37.274Z,11.02
2022-08-29T08:05:03.909Z,14.40
2022-08-29T08:10:03.628Z,11.45
2022-08-29T08:12:30.372Z,12.23
2022-08-29T08:14:57.240Z,10.82
2022-08-29T08:17:23.910Z,11.70
2022-08-29T08:19:50.443Z,14.10
2022-08-29T08:22:16.973Z,12.75
2022-08-29T08:24:43.605Z,17.85
2022-08-29T08:27:10.132Z,14.20
2022-08-29T08:29:36.606Z,15.05
2022-08-29T08:32:03.644Z,9.98
2022-08-29T08:34:30.310Z,13.93
2022-08-29T08:36:57.238Z,11.35
2022-08-29T08:39:23.768Z,11.68
2022-08-29T08:42:04.255Z,7.75
2022-08-29T08:44:57.247Z,11.82
2022-08-29T08:47:39.406Z,10.68
2022-08-29T08:50:30.764Z,8.90
2022-08-29T08:53:02.320Z,9.77
2022-08-29T08:55:46.259Z,8.82
2022-08-29T08:58:34.449Z,12.55
2022-08-29T09:01:03.602Z,13.25
2022-08-29T09:03:36.289Z,11.18
2022-08-29T09:06:22.371Z,9.63
2022-08-29T09:09:33.590Z,13.63
2022-08-29T09:12:15.304Z,9.13
2022-08-29T09:15:13.705Z,11.35
2022-08-29T09:17:44.281Z,7.90
2022-08-29T09:20:18.314Z,10.85
2022-08-29T09:22:59.133Z,6.72
2022-08-29T09:25:29.076Z,10.15
2022-08-29T09:27:58.808Z,10.35
2022-08-29T09:30:29.934Z,6.22
2022-08-29T09:33:01.723Z,9.70
2022-08-29T09:35:49.689Z,9.80
2022-08-29T09:38:25.701Z,12.48
2022-08-29T09:40:52.206Z,6.55
2022-08-29T09:43:28.387Z,7.60
2022-08-29T09:46:03.874Z,7.32
2022-08-29T09:48:35.304Z,6.75
2022-08-29T09:51:15.396Z,9.10
2022-08-29T09:53:43.131Z,4.40
2022-08-29T09:56:17.404Z,6.63
2022-08-29T09:58:44.041Z,7.68
2022-08-29T10:01:19.399Z,7.10
2022-08-29T10:04:03.305Z,9.23
2022-08-29T10:06:44.290Z,6.72
2022-08-29T10:09:26.388Z,6.88
2022-08-29T10:12:00.458Z,9.93
2022-08-29T10:14:34.398Z,6.05
2022-08-29T10:17:24.369Z,6.35
2022-08-29T10:19:51.768Z,7.75
2022-08-29T10:22:32.359Z,7.57
2022-08-29T10:25:22.608Z,6.82
2022-08-29T10:28:00.430Z,6.18
2022-08-29T10:30:35.815Z,9.27
2022-08-29T10:33:09.329Z,8.90
2022-08-29T10:36:00.967Z,5.32
2022-08-29T10:38:39.164Z,7.35
2022-08-29T10:41:50.607Z,10.43
2022-08-29T10:44:41.731Z,8.48
2022-08-29T10:47:14.214Z,6.35
2022-08-29T10:49:59.128Z,9.95
2022-08-29T10:52:41.836Z,7.30
2022-08-29T10:55:19.797Z,7.00
2022-08-29T10:58:17.681Z,10.40
2022-08-29T11:00:51.724Z,7.75
2022-08-29T11:03:46.255Z,6.82
2022-08-29T11:06:22.658Z,7.38
2022-08-29T11:08:55.640Z,7.95
2022-08-29T11:11:24.761Z,8.60
2022-08-29T11:13:58.735Z,8.48
2022-08-29T11:16:46.263Z,7.32
2022-08-29T11:19:22.744Z,6.22
2022-08-29T11:22:12.562Z,6.05
2022-08-29T11:24:42.046Z,6.97
2022-08-29T11:27:30.472Z,6.78
2022-08-29T11:30:03.983Z,4.95
2022-08-29T11:33:03.495Z,7.22
2022-08-29T11:35:42.199Z,8.38
2022-08-29T11:38:23.847Z,8.60
2022-08-29T11:41:26.736Z,8.32
2022-08-29T11:44:14.135Z,8.50
2022-08-29T11:46:44.153Z,5.57
2022-08-29T11:49:30.429Z,5.97
2022-08-29T11:52:22.596Z,8.98
2022-08-29T11:54:54.294Z,5.97
2022-08-29T11:57:20.689Z,6.25
2022-08-29T11:59:50.701Z,7.78
2022-08-29T12:02:30.165Z,6.93
2022-08-29T12:05:04.517Z,5.00
2022-08-29T12:08:35.738Z,7.18
2022-08-29T12:10:59.775Z,7.70
2022-08-29T12:13:48.257Z,5.35
2022-08-29T12:16:18.551Z,5.35
2022-08-29T12:18:49.295Z,9.82
2022-08-29T12:21:44.161Z,6.63
2022-08-29T12:24:31.353Z,6.50
2022-08-29T12:26:58.195Z,9.77
2022-08-29T12:29:33.305Z,7.35
2022-08-29T12:32:40.060Z,8.45
2022-08-29T12:35:27.554Z,9.18
2022-08-29T12:38:24.594Z,6.55
2022-08-29T12:41:23.878Z,6.80
2022-08-29T12:43:54.216Z,5.78
2022-08-29T12:46:29.903Z,6.25
2022-08-29T12:49:08.231Z,7.20
2022-08-29T12:51:38.106Z,12.00
2022-08-29T12:54:05.753Z,5.47
2022-08-29T12:56:33.219Z,6.32
2022-08-29T12:59:03.811Z,9.57
2022-08-29T13:01:37.953Z,7.10
2022-08-29T13:04:10.705Z,8.00
2022-08-29T13:06:50.328Z,7.05
2022-08-29T13:09:41.644Z,5.07
2022-08-29T13:12:08.284Z,8.38
2022-08-29T13:14:51.872Z,6.65
2022-08-29T13:17:21.003Z,10.52
2022-08-29T13:20:25.608Z,8.30
2022-08-29T13:23:05.556Z,6.85
2022-08-29T13:25:33.159Z,3.45
2022-08-29T13:28:01.949Z,15.18
2022-08-29T13:30:28.862Z,5.85
2022-08-29T13:32:55.423Z,5.95
2022-08-29T13:35:31.555Z,10.32
2022-08-29T13:38:19.706Z,6.45
2022-08-29T13:40:52.171Z,5.90
2022-08-29T13:43:27.753Z,10.07
2022-08-29T13:46:03.389Z,7.43
2022-08-29T13:48:29.975Z,5.32
2022-08-29T13:50:56.503Z,5.93
2022-08-29T13:53:22.975Z,5.75
2022-08-29T13:55:49.506Z,7.28
2022-08-29T13:58:18.897Z,7.30
2022-08-29T14:00:45.452Z,5.32
2022-08-29T14:03:16.711Z,6.55
2022-08-29T14:05:43.514Z,6.63
2022-08-29T14:08:12.365Z,7.82
2022-08-29T14:10:39.365Z,6.78
2022-08-29T14:13:06.519Z,10.45
2022-08-29T14:15:33.511Z,7.75
2022-08-29T14:18:00.217Z,6.07
2022-08-29T14:20:26.781Z,9.40
2022-08-29T14:22:53.284Z,5.00
2022-08-29T14:25:20.535Z,5.85
2022-08-29T14:27:47.832Z,5.65
2022-08-29T14:30:20.120Z,6.07
2022-08-29T14:32:46.849Z,6.35
2022-08-29T14:35:17.079Z,4.45
2022-08-29T14:37:53.797Z,7.07
2022-08-29T14:40:21.880Z,5.32
2022-08-29T14:42:48.562Z,9.52
2022-08-29T14:45:15.132Z,6.85
2022-08-29T14:47:43.310Z,5.07
2022-08-29T14:50:12.685Z,5.00
2022-08-29T14:52:39.180Z,3.92
2022-08-29T14:55:06.549Z,4.05
2022-08-29T14:57:33.225Z,4.30
2022-08-29T14:59:59.701Z,4.55
2022-08-29T15:02:26.290Z,3.67
2022-08-29T15:04:54.762Z,4.88
2022-08-29T15:07:21.291Z,5.20
2022-08-29T15:09:47.963Z,4.55
2022-08-29T15:12:16.896Z,4.57
2022-08-29T15:14:45.045Z,7.28
2022-08-29T15:17:12.323Z,5.22
2022-08-29T15:20:34.327Z,2.10
2022-08-29T15:22:26.248Z,8.85
2022-08-29T15:24:53.004Z,4.68
2022-08-29T15:27:26.823Z,5.45
2022-08-29T15:29:54.359Z,3.38
2022-08-29T15:32:20.928Z,3.33
2022-08-29T15:34:47.510Z,11.00
2022-08-29T15:37:14.115Z,4.93
2022-08-29T15:39:41.176Z,8.43
2022-08-29T15:42:17.670Z,6.25
2022-08-29T15:44:51.317Z,3.97
2022-08-29T15:47:22.647Z,3.40
2022-08-29T15:50:02.863Z,3.33
2022-08-29T15:52:42.815Z,4.38
2022-08-29T15:55:39.056Z,7.03
2022-08-29T15:58:12.989Z,6.43
2022-08-29T16:00:52.472Z,5.40
2022-08-29T16:03:29.865Z,5.43
2022-08-29T16:06:16.021Z,5.22
2022-08-29T16:08:46.706Z,5.10
2022-08-29T16:11:38.581Z,3.20
2022-08-29T16:14:58.649Z,5.22
2022-08-29T16:23:08.969Z,6.25
2022-08-29T16:25:48.944Z,6.35
2022-08-29T16:28:29.514Z,5.07
2022-08-29T16:31:02.098Z,6.28
2022-08-29T16:33:42.778Z,8.15
2022-08-29T16:36:29.899Z,5.85
2022-08-29T16:39:02.533Z,7.13
2022-08-29T16:41:41.094Z,4.53
2022-08-29T16:44:14.585Z,5.03
2022-08-29T16:46:47.534Z,7.88
2022-08-29T16:49:24.358Z,5.65
2022-08-29T16:51:57.991Z,8.77
2022-08-29T16:54:34.193Z,5.88
2022-08-29T16:57:10.031Z,5.40
2022-08-29T16:59:51.925Z,6.15
2022-08-29T17:02:26.178Z,3.15
2022-08-29T17:05:06.146Z,7.78
2022-08-29T17:07:47.169Z,5.43
2022-08-29T17:10:26.910Z,5.78
2022-08-29T17:13:02.105Z,6.32
2022-08-29T17:15:36.731Z,10.10
2022-08-29T17:18:13.112Z,9.30
2022-08-29T17:21:04.969Z,9.20
2022-08-29T17:23:39.507Z,6.35
2022-08-29T17:26:09.572Z,6.35
2022-08-29T17:28:54.146Z,8.85
2022-08-29T17:31:48.874Z,7.95
2022-08-29T17:34:24.438Z,6.05
2022-08-29T17:40:11.215Z,4.85
2022-08-29T17:42:50.794Z,5.80
2022-08-29T17:45:33.522Z,3.20
2022-08-29T17:48:10.903Z,6.80
2022-08-29T17:50:48.387Z,8.05
2022-08-29T17:53:18.717Z,9.23
2022-08-29T17:55:54.975Z,9.23
2022-08-29T17:58:37.247Z,6.40
2022-08-29T18:01:10.438Z,5.65
2022-08-29T18:03:48.475Z,10.32
2022-08-29T18:06:27.110Z,6.43
2022-08-29T18:11:56.459Z,7.65
2022-08-29T18:14:27.037Z,3.45
2022-08-29T18:17:06.171Z,4.93
2022-08-29T18:19:48.664Z,10.85
2022-08-29T18:22:24.132Z,8.05
2022-08-29T18:25:05.624Z,8.95
2022-08-29T18:28:00.408Z,4.30
2022-08-29T18:30:35.229Z,6.13
2022-08-29T18:33:28.496Z,7.38
2022-08-29T18:41:55.700Z,7.07
2022-08-29T18:44:33.395Z,11.35
2022-08-29T18:47:33.707Z,9.40
2022-08-29T18:50:30.602Z,5.75
2022-08-29T18:53:09.397Z,7.85
2022-08-29T18:55:54.388Z,7.30
2022-08-29T19:01:31.236Z,6.28
2022-08-29T19:04:14.597Z,6.22
2022-08-29T19:06:55.158Z,9.02
2022-08-29T19:09:25.674Z,10.70
2022-08-29T19:12:02.543Z,7.47
2022-08-29T19:14:41.632Z,9.30
2022-08-29T19:17:17.469Z,5.53
2022-08-29T19:20:12.358Z,7.82
2022-08-29T19:22:39.329Z,10.70
2022-08-29T19:25:08.848Z,8.15
2022-08-29T19:27:43.529Z,8.93
2022-08-29T19:30:13.376Z,6.47
2022-08-29T19:35:07.186Z,6.47
2022-08-29T19:37:33.773Z,7.10
2022-08-29T19:40:01.273Z,8.65
2022-08-29T19:42:28.127Z,9.40
2022-08-29T19:44:54.944Z,9.60
2022-08-29T19:47:23.979Z,4.03
2022-08-29T19:49:51.027Z,9.43
2022-08-29T19:52:17.637Z,9.27
2022-08-29T19:54:44.217Z,10.50
2022-08-29T19:57:13.614Z,8.30
2022-08-29T19:59:42.240Z,10.98
2022-08-29T20:02:09.333Z,9.05
2022-08-29T20:04:36.424Z,6.47
2022-08-29T20:07:03.471Z,7.28
2022-08-29T20:09:30.254Z,7.20
2022-08-29T20:11:57.279Z,9.25
2022-08-29T20:14:24.223Z,8.93
2022-08-29T20:16:51.630Z,8.15
2022-08-29T20:19:19.089Z,10.48
2022-08-29T20:21:46.051Z,8.00
2022-08-29T20:24:15.691Z,10.80
2022-08-29T20:26:44.405Z,8.48
2022-08-29T20:29:12.052Z,9.75
2022-08-29T20:31:39.793Z,8.52
2022-08-29T20:34:06.682Z,8.18
2022-08-29T20:36:51.659Z,4.95
2022-08-29T20:39:20.153Z,6.55
2022-08-29T20:41:51.596Z,5.95
2022-08-29T20:44:20.235Z,8.00
2022-08-29T20:46:47.893Z,7.10
2022-08-29T20:49:18.261Z,6.07
2022-08-29T20:51:45.084Z,6.03
2022-08-29T20:54:18.729Z,9.45
2022-08-29T20:56:45.379Z,7.78
2022-08-29T20:59:12.872Z,7.93
2022-08-29T21:01:40.354Z,6.43
2022-08-29T21:04:27.766Z,6.40
2022-08-29T21:07:02.753Z,7.13
2022-08-29T21:09:29.297Z,4.03
2022-08-29T21:11:56.492Z,8.07
2022-08-29T21:14:23.961Z,7.75
2022-08-29T21:16:52.202Z,4.70
2022-08-29T21:19:19.089Z,6.97
2022-08-29T21:21:46.210Z,3.92
2022-08-29T21:24:12.853Z,5.15
2022-08-29T21:26:39.962Z,6.72
2022-08-29T21:29:07.782Z,5.97
2022-08-29T21:31:34.855Z,5.32
2022-08-29T21:34:06.437Z,4.03
2022-08-29T21:36:35.968Z,3.78
2022-08-29T21:39:04.056Z,2.05
2022-08-29T21:41:31.769Z,6.75
2022-08-29T21:43:58.365Z,3.60
2022-08-29T21:46:31.590Z,7.70
2022-08-29T21:49:04.659Z,4.55
2022-08-29T21:51:32.382Z,3.78
2022-08-29T21:53:59.963Z,6.32
2022-08-29T21:56:28.793Z,2.15
2022-08-29T21:58:56.803Z,3.05
2022-08-29T22:01:29.840Z,4.53
2022-08-29T22:03:58.432Z,6.47
2022-08-29T22:06:27.690Z,3.03
2022-08-29T22:08:55.119Z,3.53
2022-08-29T22:11:37.045Z,5.18
2022-08-29T22:14:05.679Z,2.90
2022-08-29T22:16:32.406Z,1.50
2022-08-29T22:19:16.567Z,2.42
2022-08-29T22:21:46.228Z,3.05
2022-08-29T22:24:14.232Z,3.85
2022-08-29T22:26:42.258Z,3.15
2022-08-29T22:29:12.022Z,4.65
2022-08-29T22:31:38.826Z,4.53
2022-08-29T22:34:05.739Z,3.63
2022-08-29T22:36:33.136Z,5.70
2022-08-29T22:38:59.998Z,3.15
2022-08-29T22:41:26.950Z,1.98
2022-08-29T22:44:31.691Z,4.72
2022-08-29T22:46:43.917Z,3.75
2022-08-29T22:49:10.522Z,3.38
2022-08-29T22:51:37.152Z,1.98
2022-08-29T22:54:22.202Z,3.90
2022-08-29T22:56:48.686Z,1.63
2022-08-29T22:59:15.228Z,5.53
2022-08-29T23:01:44.117Z,2.95
2022-08-29T23:04:11.606Z,1.60
2022-08-29T23:06:38.502Z,3.70
2022-08-29T23:09:05.892Z,3.28
2022-08-29T23:11:32.792Z,4.45
2022-08-29T23:13:59.549Z,3.42
2022-08-29T23:16:26.110Z,3.15
2022-08-29T23:18:52.662Z,3.17
2022-08-29T23:21:19.422Z,6.15
2022-08-29T23:23:46.135Z,3.95
2022-08-29T23:26:12.792Z,2.67
2022-08-29T23:28:39.352Z,1.60
2022-08-29T23:31:06.143Z,2.22
2022-08-29T23:33:32.711Z,3.90
2022-08-29T23:35:59.154Z,2.92
2022-08-29T23:38:26.190Z,2.80
2022-08-29T23:43:24.657Z,1.58
2022-08-29T23:45:52.011Z,4.65
2022-08-29T23:48:19.008Z,3.47
2022-08-29T23:50:53.387Z,5.18
2022-08-29T23:53:22.206Z,3.83
2022-08-29T23:55:49.749Z,5.65
2022-08-29T23:58:17.431Z,4.53
